Time;durP1;ratioP1;P1;durP2;ratioP2;P2;SDS_P1;SDS_P2;PMS_P1;PMS_P2;Temp;Humidity;BMP_temperature;BMP_pressure;BME280_temperature;BME280_humidity;BME280_pressure;Samples;Min_cycle;Max_cycle;Signal;HPM_P1;HPM_P2
2023/03/27 00:00:15;;;;;;;7.17;1.27;;;3.80;99.90;;;;;;4989480;28;20702;-64
2023/03/27 00:02:42;;;;;;;4.70;1.13;;;3.80;99.90;;;;;;5013138;28;20446;-64
2023/03/27 00:05:09;;;;;;;6.70;1.47;;;3.70;99.90;;;;;;5017181;28;20676;-64
2023/03/27 00:07:40;;;;;;;3.00;1.33;;;3.70;99.90;;;;;;5003444;28;20193;-64
2023/03/27 00:10:07;;;;;;;4.00;0.90;;;3.60;99.90;;;;;;4997596;28;22430;-64
2023/03/27 00:12:34;;;;;;;2.80;1.23;;;3.60;99.90;;;;;;5007021;28;20208;-64
2023/03/27 00:15:01;;;;;;;3.90;1.00;;;3.70;99.90;;;;;;4982246;28;20954;-64
2023/03/27 00:17:29;;;;;;;8.50;1.40;;;3.70;99.90;;;;;;5018730;28;20730;-64
2023/03/27 00:19:56;;;;;;;3.47;1.77;;;3.80;99.90;;;;;;5019527;28;20612;-64
2023/03/27 00:22:23;;;;;;;10.67;1.30;;;3.80;99.90;;;;;;5023015;28;20289;-64
2023/03/27 00:24:51;;;;;;;3.93;1.17;;;3.80;99.90;;;;;;5004735;28;20209;-64
2023/03/27 00:27:18;;;;;;;4.17;0.97;;;3.70;99.90;;;;;;5014632;28;20456;-64
2023/03/27 00:29:45;;;;;;;2.07;1.10;;;3.70;99.90;;;;;;4976499;28;21239;-64
2023/03/27 00:32:12;;;;;;;3.60;0.90;;;3.70;99.90;;;;;;5021638;28;20200;-64
2023/03/27 00:34:39;;;;;;;8.23;1.60;;;3.70;99.90;;;;;;5018680;28;20198;-64
2023/03/27 00:37:06;;;;;;;5.43;1.30;;;3.70;99.90;;;;;;5024449;28;20222;-64
2023/03/27 00:39:33;;;;;;;5.70;1.53;;;3.70;99.90;;;;;;5022706;28;20587;-64
2023/03/27 00:42:02;;;;;;;3.50;1.13;;;3.70;99.90;;;;;;4998188;28;20222;-64
2023/03/27 00:44:33;;;;;;;4.30;1.40;;;3.70;99.90;;;;;;4998792;28;20632;-64
2023/03/27 00:47:01;;;;;;;3.63;1.13;;;3.80;99.90;;;;;;5017605;28;20214;-63
2023/03/27 00:49:32;;;;;;;4.20;1.20;;;3.70;99.90;;;;;;5016317;28;20208;-64
2023/03/27 00:52:01;;;;;;;1.97;1.13;;;3.70;99.90;;;;;;5020185;28;20794;-64
2023/03/27 00:54:31;;;;;;;2.87;1.13;;;3.80;99.90;;;;;;5019931;28;20200;-63
2023/03/27 00:57:04;;;;;;;4.40;1.27;;;3.80;99.90;;;;;;5005109;28;20644;-64
2023/03/27 00:59:35;;;;;;;7.00;1.23;;;3.80;99.90;;;;;;5000389;28;20205;-64
2023/03/27 01:02:03;;;;;;;2.93;1.03;;;3.90;99.90;;;;;;5019652;28;20228;-64
2023/03/27 01:04:30;;;;;;;3.90;1.33;;;3.90;99.90;;;;;;5021277;28;20657;-64
2023/03/27 01:06:59;;;;;;;4.37;0.97;;;4.00;99.90;;;;;;5022358;28;20679;-64
2023/03/27 01:09:26;;;;;;;3.00;1.00;;;4.00;99.90;;;;;;5017081;28;20198;-64
2023/03/27 01:12:06;;;;;;;5.07;1.10;;;4.10;99.90;;;;;;5002676;28;20684;-64
2023/03/27 01:14:40;;;;;;;7.80;1.73;;;4.10;99.90;;;;;;5021493;28;20284;-63
2023/03/27 01:17:21;;;;;;;0.60;0.60;;;4.00;99.90;;;;;;4982484;28;20209;-64
2023/03/27 01:20:20;;;;;;;2.07;0.97;;;4.00;99.90;;;;;;5009515;28;20817;-64
2023/03/27 01:23:10;;;;;;;2.40;1.17;;;3.90;99.90;;;;;;5018100;28;20703;-64
2023/03/27 01:26:14;;;;;;;7.20;1.20;;;3.90;99.90;;;;;;5010824;28;20193;-64
2023/03/27 01:28:50;;;;;;;2.47;0.90;;;3.80;99.90;;;;;;4999847;28;20469;-64
2023/03/27 01:31:33;;;;;;;4.73;1.13;;;3.80;99.90;;;;;;4983735;28;20292;-64
2023/03/27 01:34:43;;;;;;;2.40;0.83;;;3.70;99.90;;;;;;5015729;28;20193;-64
2023/03/27 01:37:29;;;;;;;4.27;1.47;;;3.80;99.90;;;;;;5019251;28;20193;-64
2023/03/27 01:40:04;;;;;;;4.83;1.13;;;3.80;99.90;;;;;;5016315;28;20280;-64
2023/03/27 01:42:34;;;;;;;5.70;1.30;;;3.70;99.90;;;;;;5004237;28;20650;-64
2023/03/27 01:45:05;;;;;;;3.43;1.37;;;3.70;99.90;;;;;;5019549;28;20692;-64
2023/03/27 01:47:38;;;;;;;10.40;1.07;;;3.60;99.90;;;;;;4990942;28;20318;-64
2023/03/27 01:50:12;;;;;;;4.13;1.30;;;3.60;99.90;;;;;;5008104;28;20225;-64
2023/03/27 01:52:43;;;;;;;4.80;1.10;;;3.50;99.90;;;;;;5023436;28;20194;-64
2023/03/27 01:55:17;;;;;;;6.50;1.20;;;3.50;99.90;;;;;;5004000;28;20199;-64
2023/03/27 01:57:49;;;;;;;5.47;1.50;;;3.60;99.90;;;;;;4998364;28;20242;-64
2023/03/27 02:00:20;;;;;;;3.50;1.20;;;3.40;99.90;;;;;;5015627;28;20373;-64
2023/03/27 02:02:51;;;;;;;2.23;1.20;;;3.30;99.90;;;;;;5005533;28;20197;-64
2023/03/27 02:05:23;;;;;;;4.83;1.13;;;3.20;99.90;;;;;;5008732;28;20440;-64
2023/03/27 02:07:54;;;;;;;1.90;1.23;;;3.20;99.90;;;;;;5016364;28;20217;-64
2023/03/27 02:10:26;;;;;;;9.67;1.20;;;3.10;99.90;;;;;;5008677;28;20311;-64
2023/03/27 02:12:57;;;;;;;3.00;0.83;;;3.00;99.90;;;;;;5008814;28;20203;-64
2023/03/27 02:15:30;;;;;;;4.70;1.50;;;3.00;99.90;;;;;;5019312;28;20213;-64
2023/03/27 02:18:03;;;;;;;4.73;1.03;;;2.90;99.90;;;;;;5014054;28;20347;-64
2023/03/27 02:20:31;;;;;;;2.47;1.13;;;2.90;99.90;;;;;;4979334;28;20705;-64
2023/03/27 02:22:59;;;;;;;2.50;1.20;;;2.90;99.90;;;;;;5000876;28;20700;-64
2023/03/27 02:25:31;;;;;;;3.97;1.10;;;2.80;99.90;;;;;;4999884;28;20217;-64
2023/03/27 02:28:17;;;;;;;1.00;0.80;;;2.90;99.90;;;;;;4996857;28;20232;-64
2023/03/27 02:30:51;;;;;;;6.80;1.57;;;2.80;99.90;;;;;;4988933;28;20942;-64
2023/03/27 02:33:26;;;;;;;6.27;1.33;;;2.70;99.90;;;;;;5000879;28;20641;-63
2023/03/27 02:35:59;;;;;;;4.27;1.17;;;2.70;99.90;;;;;;4985603;28;20208;-64
2023/03/27 02:38:32;;;;;;;4.83;1.53;;;2.60;99.90;;;;;;5008049;28;20231;-63
2023/03/27 02:41:09;;;;;;;3.47;1.37;;;2.60;99.90;;;;;;5007665;28;20680;-64
2023/03/27 02:43:39;;;;;;;5.57;1.37;;;2.60;99.90;;;;;;5002165;28;20299;-64
2023/03/27 02:46:12;;;;;;;3.77;1.63;;;2.60;99.90;;;;;;4993549;28;20230;-64
2023/03/27 02:48:44;;;;;;;1.97;1.20;;;2.50;99.90;;;;;;5009612;28;20304;-64
2023/03/27 02:51:15;;;;;;;3.50;1.57;;;2.50;99.90;;;;;;4975998;28;20250;-64
2023/03/27 02:53:48;;;;;;;6.43;1.70;;;2.50;99.90;;;;;;5008838;28;20580;-64
2023/03/27 02:56:19;;;;;;;3.40;1.33;;;2.50;99.90;;;;;;5015416;28;20203;-64
2023/03/27 02:58:50;;;;;;;15.40;2.17;;;2.50;99.90;;;;;;5001916;28;20222;-64
2023/03/27 03:01:20;;;;;;;2.60;1.10;;;2.50;99.90;;;;;;4997446;28;20314;-64
2023/03/27 03:03:53;;;;;;;3.47;1.07;;;2.50;99.90;;;;;;5018302;28;20441;-64
2023/03/27 03:06:21;;;;;;;4.10;1.07;;;2.50;99.90;;;;;;4982040;28;20216;-64
2023/03/27 03:08:49;;;;;;;6.93;1.50;;;2.50;99.90;;;;;;5010307;28;20247;-64
2023/03/27 03:11:17;;;;;;;5.77;1.03;;;2.50;99.90;;;;;;5011470;28;23087;-64
2023/03/27 03:13:44;;;;;;;3.07;1.20;;;2.50;99.90;;;;;;4978800;28;20236;-64
2023/03/27 03:16:11;;;;;;;7.37;1.50;;;2.50;99.90;;;;;;4991930;28;20205;-64
2023/03/27 03:18:38;;;;;;;3.57;1.20;;;2.40;99.90;;;;;;5002348;28;20337;-64
2023/03/27 03:21:05;;;;;;;3.43;1.20;;;2.40;99.90;;;;;;4977270;28;20216;-64
2023/03/27 03:23:32;;;;;;;3.13;1.30;;;2.40;99.90;;;;;;5012712;28;20207;-64
2023/03/27 03:26:00;;;;;;;2.90;1.20;;;2.40;99.90;;;;;;4996536;28;20417;-64
2023/03/27 03:28:28;;;;;;;7.33;1.27;;;2.30;99.90;;;;;;4987074;28;20233;-64
2023/03/27 03:30:57;;;;;;;12.00;1.60;;;2.30;99.90;;;;;;5004602;28;20208;-64
2023/03/27 03:33:26;;;;;;;7.33;1.43;;;2.30;99.90;;;;;;4998740;28;20244;-64
2023/03/27 03:35:53;;;;;;;6.83;1.50;;;2.30;99.90;;;;;;5018092;28;20299;-64
2023/03/27 03:38:23;;;;;;;3.90;1.47;;;2.30;99.90;;;;;;4978394;28;20229;-64
2023/03/27 03:40:52;;;;;;;2.90;1.40;;;2.00;99.90;;;;;;5007922;28;20828;-64
2023/03/27 03:43:20;;;;;;;2.13;1.13;;;2.30;99.90;;;;;;5016140;28;20210;-64
2023/03/27 03:45:48;;;;;;;3.03;1.20;;;2.20;99.90;;;;;;5000992;28;20279;-64
2023/03/27 03:48:15;;;;;;;6.37;1.33;;;2.30;99.90;;;;;;5000212;28;20217;-64
2023/03/27 03:50:42;;;;;;;6.20;1.37;;;2.40;99.90;;;;;;5011987;28;20231;-63
2023/03/27 03:53:09;;;;;;;7.83;1.80;;;2.40;99.90;;;;;;4991178;28;20215;-64
2023/03/27 03:55:36;;;;;;;8.03;1.73;;;2.50;99.90;;;;;;5002877;28;20746;-64
2023/03/27 03:58:03;;;;;;;1.90;1.50;;;2.50;99.90;;;;;;5004431;28;20960;-64
2023/03/27 04:00:33;;;;;;;4.13;1.57;;;2.50;99.90;;;;;;5016956;28;20665;-64
2023/03/27 04:03:03;;;;;;;8.10;1.50;;;2.50;99.90;;;;;;4992061;28;20854;-64
2023/03/27 04:05:30;;;;;;;11.27;1.60;;;2.40;99.90;;;;;;5019821;28;20648;-64
2023/03/27 04:07:58;;;;;;;4.87;1.53;;;2.50;99.90;;;;;;4981281;28;21295;-64
2023/03/27 04:10:25;;;;;;;1.37;1.03;;;2.50;99.90;;;;;;5013555;28;20204;-64
2023/03/27 04:12:51;;;;;;;13.23;1.40;;;2.50;99.90;;;;;;5009491;28;20327;-64
2023/03/27 04:15:19;;;;;;;5.13;1.33;;;2.40;99.90;;;;;;5008174;28;20205;-64
2023/03/27 04:17:47;;;;;;;3.33;1.60;;;2.40;99.90;;;;;;5005703;28;20199;-64
2023/03/27 04:20:16;;;;;;;5.23;1.20;;;2.30;99.90;;;;;;5004999;28;20228;-64
2023/03/27 04:22:45;;;;;;;4.90;1.00;;;2.30;99.90;;;;;;4994184;28;20292;-64
2023/03/27 04:25:13;;;;;;;8.17;1.63;;;2.20;99.90;;;;;;5018316;28;20209;-64
2023/03/27 04:27:42;;;;;;;7.57;1.30;;;2.20;99.90;;;;;;5017676;28;20232;-64
2023/03/27 04:30:13;;;;;;;2.20;0.90;;;2.20;99.90;;;;;;5016559;28;20223;-64
2023/03/27 04:32:40;;;;;;;6.13;1.27;;;2.20;99.90;;;;;;5016002;28;20201;-64
2023/03/27 04:35:09;;;;;;;5.00;1.27;;;2.20;99.90;;;;;;5005048;28;20194;-64
2023/03/27 04:37:40;;;;;;;8.90;1.80;;;2.20;99.90;;;;;;4996398;28;20208;-64
2023/03/27 04:40:09;;;;;;;1.80;1.17;;;2.20;99.90;;;;;;5012525;28;20224;-64
2023/03/27 04:42:41;;;;;;;2.47;1.10;;;2.20;99.90;;;;;;5016511;28;20197;-64
2023/03/27 04:45:09;;;;;;;4.73;1.17;;;2.00;99.90;;;;;;5018784;28;20559;-64
2023/03/27 04:47:37;;;;;;;4.50;1.40;;;2.10;99.90;;;;;;5022876;28;20585;-64
2023/03/27 04:50:05;;;;;;;5.50;1.40;;;2.00;99.90;;;;;;4999449;28;20251;-64
2023/03/27 04:52:33;;;;;;;8.07;1.73;;;2.00;99.90;;;;;;5009066;28;20215;-64
2023/03/27 04:55:01;;;;;;;7.63;1.20;;;2.00;99.90;;;;;;4985353;28;20396;-64
2023/03/27 04:57:29;;;;;;;3.93;1.63;;;2.00;99.90;;;;;;5021204;28;20282;-64
2023/03/27 04:59:56;;;;;;;7.10;1.33;;;2.00;99.90;;;;;;5015376;28;20736;-64
2023/03/27 05:02:25;;;;;;;4.00;1.30;;;2.00;99.90;;;;;;5026052;28;20717;-64
2023/03/27 05:04:57;;;;;;;6.43;1.53;;;1.90;99.90;;;;;;5003397;28;20504;-64
2023/03/27 05:07:24;;;;;;;3.53;1.20;;;1.90;99.90;;;;;;5010792;28;20745;-63
2023/03/27 05:09:51;;;;;;;2.67;1.13;;;1.80;99.90;;;;;;4982807;28;21415;-64
2023/03/27 05:12:20;;;;;;;4.83;1.50;;;1.90;99.90;;;;;;5023366;28;20193;-64
2023/03/27 05:14:47;;;;;;;2.97;1.30;;;1.80;99.90;;;;;;5018822;28;20197;-64
2023/03/27 05:17:15;;;;;;;1.20;0.93;;;1.80;99.90;;;;;;5020599;28;20735;-64
2023/03/27 05:19:42;;;;;;;3.93;1.13;;;1.80;99.90;;;;;;5018479;28;20233;-64
2023/03/27 05:22:09;;;;;;;4.97;1.40;;;1.80;99.90;;;;;;4999187;28;20452;-64
2023/03/27 05:24:36;;;;;;;5.03;1.30;;;1.90;99.90;;;;;;5020696;28;20204;-63
2023/03/27 05:27:03;;;;;;;2.37;1.10;;;1.80;99.90;;;;;;4979970;28;20682;-64
2023/03/27 05:29:32;;;;;;;4.17;1.57;;;1.90;99.90;;;;;;5022128;28;20241;-64
2023/03/27 05:31:59;;;;;;;7.63;1.63;;;1.80;99.90;;;;;;5017864;28;20330;-64
2023/03/27 05:34:27;;;;;;;5.73;1.20;;;1.90;99.90;;;;;;5019942;28;20205;-64
2023/03/27 05:36:56;;;;;;;8.77;1.47;;;1.90;99.90;;;;;;5007253;28;20293;-64
2023/03/27 05:39:24;;;;;;;10.87;1.57;;;1.90;99.90;;;;;;5019685;28;20256;-63
2023/03/27 05:41:51;;;;;;;5.63;1.70;;;2.00;99.90;;;;;;4988172;28;20231;-64
2023/03/27 05:44:18;;;;;;;3.97;1.33;;;2.00;99.90;;;;;;5018341;28;20330;-63
2023/03/27 05:46:46;;;;;;;3.80;1.40;;;1.80;99.90;;;;;;5017102;28;20201;-63
2023/03/27 05:49:14;;;;;;;9.43;1.57;;;1.90;99.90;;;;;;5023144;28;20196;-63
2023/03/27 05:51:41;;;;;;;9.97;1.43;;;1.80;99.90;;;;;;5007358;28;20517;-63
2023/03/27 05:54:07;;;;;;;3.97;1.50;;;1.80;99.90;;;;;;5021204;28;20196;-63
2023/03/27 05:56:34;;;;;;;2.93;1.20;;;1.80;99.90;;;;;;4991061;28;20222;-64
2023/03/27 05:59:01;;;;;;;1.20;1.00;;;1.70;99.90;;;;;;5020780;28;20227;-63
2023/03/27 06:01:28;;;;;;;4.07;1.50;;;1.70;99.90;;;;;;5022397;28;20206;-63
2023/03/27 06:03:56;;;;;;;8.10;1.43;;;1.70;99.90;;;;;;5011529;28;20669;-63
2023/03/27 06:06:23;;;;;;;9.40;1.70;;;1.80;99.90;;;;;;4993290;28;20331;-63
2023/03/27 06:08:50;;;;;;;5.47;1.40;;;1.70;99.90;;;;;;5003134;28;20206;-63
2023/03/27 06:11:17;;;;;;;5.67;1.97;;;1.80;99.90;;;;;;5013907;28;20324;-64
2023/03/27 06:13:44;;;;;;;7.57;2.03;;;1.80;99.90;;;;;;4987697;28;20524;-63
2023/03/27 06:16:11;;;;;;;2.97;1.23;;;1.80;99.90;;;;;;5022495;28;20977;-63
2023/03/27 06:18:38;;;;;;;4.47;1.33;;;1.80;99.90;;;;;;5012107;28;20411;-63
2023/03/27 06:21:06;;;;;;;4.13;1.27;;;1.80;99.90;;;;;;5015758;28;20703;-63
2023/03/27 06:23:33;;;;;;;7.70;1.40;;;1.80;99.90;;;;;;5000161;28;21533;-63
2023/03/27 06:26:00;;;;;;;4.57;1.43;;;1.60;99.90;;;;;;5013949;28;20198;-63
2023/03/27 06:28:27;;;;;;;6.13;1.30;;;1.50;99.90;;;;;;4981697;28;20238;-63
2023/03/27 06:30:54;;;;;;;7.20;1.80;;;1.50;99.90;;;;;;5016812;28;20223;-63
2023/03/27 06:33:21;;;;;;;3.93;1.30;;;1.40;99.90;;;;;;5015312;28;20347;-64
2023/03/27 06:35:48;;;;;;;4.17;1.33;;;1.50;99.90;;;;;;5015336;28;20453;-64
2023/03/27 06:38:17;;;;;;;6.50;1.40;;;1.50;99.90;;;;;;5002200;28;20217;-64
2023/03/27 06:40:45;;;;;;;1.57;0.83;;;1.50;99.90;;;;;;5012304;28;20624;-63
2023/03/27 06:43:16;;;;;;;0.77;0.77;;;1.50;99.90;;;;;;4983672;28;20206;-63
2023/03/27 06:45:45;;;;;;;4.03;0.97;;;1.50;99.90;;;;;;4998158;28;20266;-64
2023/03/27 06:48:15;;;;;;;1.20;0.80;;;1.60;99.90;;;;;;5020271;28;20571;-64
2023/03/27 06:50:42;;;;;;;2.73;0.80;;;1.60;99.90;;;;;;5018889;28;20394;-64
2023/03/27 06:53:10;;;;;;;9.10;1.60;;;1.70;99.90;;;;;;5021457;28;20200;-64
2023/03/27 06:55:38;;;;;;;3.73;1.20;;;1.80;99.90;;;;;;4989551;28;20336;-64
2023/03/27 06:58:05;;;;;;;4.90;1.70;;;1.80;99.90;;;;;;5015311;28;20193;-63
2023/03/27 07:00:36;;;;;;;3.33;1.20;;;1.90;99.90;;;;;;4957540;28;20240;-64
2023/03/27 07:03:05;;;;;;;3.93;1.60;;;2.00;99.90;;;;;;5009529;28;20202;-64
2023/03/27 07:05:35;;;;;;;5.93;1.37;;;2.00;99.90;;;;;;5008823;28;20293;-64
2023/03/27 07:08:03;;;;;;;3.00;1.20;;;2.10;99.90;;;;;;5018360;28;20236;-64
2023/03/27 07:10:30;;;;;;;4.30;1.63;;;2.10;99.90;;;;;;4997981;28;20206;-64
2023/03/27 07:12:58;;;;;;;2.33;1.53;;;2.20;99.90;;;;;;5012153;28;20229;-64
2023/03/27 07:15:25;;;;;;;2.27;1.20;;;2.40;99.90;;;;;;4981539;28;20217;-64
2023/03/27 07:17:56;;;;;;;2.47;1.40;;;2.50;99.90;;;;;;5006892;28;20216;-64
2023/03/27 07:20:24;;;;;;;1.73;1.13;;;2.60;99.90;;;;;;5016600;28;20232;-64
2023/03/27 07:22:50;;;;;;;3.40;1.20;;;2.50;99.90;;;;;;5013190;28;20745;-64
2023/03/27 07:25:17;;;;;;;7.13;1.10;;;2.50;99.90;;;;;;4995882;28;20225;-63
2023/03/27 07:27:44;;;;;;;2.37;1.27;;;2.50;99.90;;;;;;5006189;28;20244;-64
2023/03/27 07:30:13;;;;;;;5.03;1.10;;;2.40;99.90;;;;;;4984712;28;20675;-64
2023/03/27 07:32:43;;;;;;;4.37;1.20;;;2.50;99.90;;;;;;5004219;28;21487;-64
2023/03/27 07:35:10;;;;;;;1.87;1.00;;;2.50;99.90;;;;;;5019994;28;20225;-64
2023/03/27 07:37:38;;;;;;;3.00;1.03;;;2.60;99.90;;;;;;5015760;28;20221;-64
2023/03/27 07:40:07;;;;;;;0.77;0.70;;;2.70;99.90;;;;;;5005209;28;20252;-64
2023/03/27 07:42:34;;;;;;;5.63;1.40;;;3.00;99.90;;;;;;5001463;28;20226;-64
2023/03/27 07:45:01;;;;;;;3.70;0.83;;;2.90;99.90;;;;;;4983122;28;21066;-64
2023/03/27 07:47:30;;;;;;;1.83;0.90;;;3.30;99.90;;;;;;4996207;28;20231;-64
2023/03/27 07:49:56;;;;;;;6.73;1.60;;;3.30;99.90;;;;;;5010947;28;20787;-64
2023/03/27 07:52:23;;;;;;;4.40;1.07;;;3.40;99.90;;;;;;5008844;28;20224;-64
2023/03/27 07:54:50;;;;;;;6.10;1.07;;;3.50;99.90;;;;;;5012331;28;20201;-64
2023/03/27 07:57:17;;;;;;;2.57;1.20;;;3.60;99.90;;;;;;5009534;28;20716;-64
2023/03/27 07:59:45;;;;;;;3.67;1.20;;;3.60;99.90;;;;;;5018556;28;23559;-65
2023/03/27 08:02:12;;;;;;;4.07;1.17;;;3.70;99.90;;;;;;4990366;28;20458;-64
2023/03/27 08:04:40;;;;;;;6.23;1.17;;;3.80;99.90;;;;;;5021556;28;20661;-64
2023/03/27 08:07:08;;;;;;;3.93;1.30;;;3.70;99.90;;;;;;5015499;28;20776;-64
2023/03/27 08:09:35;;;;;;;2.80;1.20;;;3.70;99.90;;;;;;5007306;28;20202;-64
2023/03/27 08:12:05;;;;;;;4.63;1.00;;;3.70;99.90;;;;;;4986883;28;20383;-64
2023/03/27 08:14:32;;;;;;;7.07;1.00;;;3.70;99.90;;;;;;5011947;28;20217;-64
2023/03/27 08:16:59;;;;;;;3.60;0.90;;;3.70;99.90;;;;;;4983292;28;20232;-64
2023/03/27 08:19:26;;;;;;;1.27;0.70;;;3.70;99.90;;;;;;5004689;28;20578;-64
2023/03/27 08:21:54;;;;;;;5.43;0.80;;;3.20;99.90;;;;;;5019002;28;20212;-64
2023/03/27 08:24:21;;;;;;;1.50;0.67;;;2.90;99.90;;;;;;4992898;28;20673;-64
2023/03/27 08:26:48;;;;;;;3.00;0.63;;;2.70;99.90;;;;;;5010282;28;20566;-64
2023/03/27 08:29:15;;;;;;;5.97;1.57;;;2.60;99.90;;;;;;4985444;28;20330;-64
2023/03/27 08:31:42;;;;;;;3.47;1.10;;;2.50;99.90;;;;;;5003153;28;20203;-64
2023/03/27 08:34:09;;;;;;;7.80;0.97;;;2.50;99.90;;;;;;4980547;28;20288;-64
2023/03/27 08:36:37;;;;;;;6.93;1.10;;;2.50;99.90;;;;;;5004938;28;20768;-64
2023/03/27 08:39:06;;;;;;;0.97;0.60;;;2.50;99.90;;;;;;5003707;28;20754;-64
2023/03/27 08:41:39;;;;;;;1.80;1.13;;;2.40;99.90;;;;;;5005219;28;20653;-64
2023/03/27 08:44:11;;;;;;;1.57;1.07;;;2.50;99.90;;;;;;4992686;28;20223;-65
2023/03/27 08:46:42;;;;;;;10.70;1.50;;;2.60;99.90;;;;;;5011944;28;20232;-65
2023/03/27 08:49:16;;;;;;;1.07;0.80;;;2.60;99.90;;;;;;4987230;28;20212;-64
2023/03/27 08:51:47;;;;;;;2.37;0.97;;;2.70;99.90;;;;;;5008867;28;20221;-65
2023/03/27 08:54:20;;;;;;;2.97;0.80;;;2.80;99.90;;;;;;5019373;28;20221;-65
2023/03/27 08:56:47;;;;;;;3.13;0.90;;;2.90;99.90;;;;;;4990867;28;20234;-64
2023/03/27 08:59:17;;;;;;;3.60;1.17;;;2.90;99.90;;;;;;4996068;28;20236;-64
2023/03/27 09:01:51;;;;;;;6.43;1.70;;;2.90;99.90;;;;;;5004704;28;20238;-64
2023/03/27 09:04:28;;;;;;;1.33;0.93;;;3.00;99.90;;;;;;4986022;28;20208;-64
2023/03/27 09:07:01;;;;;;;3.13;0.80;;;3.00;99.90;;;;;;5010499;28;20547;-64
2023/03/27 09:09:41;;;;;;;11.07;1.30;;;3.10;99.90;;;;;;5012614;28;20444;-64
2023/03/27 09:12:20;;;;;;;4.33;1.20;;;3.30;99.90;;;;;;5004028;28;20357;-65
2023/03/27 09:14:52;;;;;;;13.13;1.77;;;3.50;99.90;;;;;;5002797;28;20218;-64
2023/03/27 09:17:24;;;;;;;1.60;0.77;;;3.60;99.90;;;;;;5012833;28;20224;-64
2023/03/27 09:19:57;;;;;;;3.27;1.20;;;3.70;99.90;;;;;;4975614;28;20293;-64
2023/03/27 09:22:27;;;;;;;1.93;1.03;;;3.90;99.90;;;;;;5003791;28;20396;-64
2023/03/27 09:25:01;;;;;;;5.57;1.30;;;4.00;99.90;;;;;;5018622;28;20941;-64
2023/03/27 09:27:32;;;;;;;3.03;0.80;;;4.10;99.90;;;;;;5004050;28;20728;-64
2023/03/27 09:30:17;;;;;;;2.57;1.10;;;4.40;99.90;;;;;;5000752;28;20233;-65
2023/03/27 09:32:45;;;;;;;2.40;0.90;;;4.60;99.90;;;;;;5013131;28;20445;-64
2023/03/27 09:35:14;;;;;;;4.57;0.80;;;4.70;99.90;;;;;;4990399;28;20212;-64
2023/03/27 09:37:41;;;;;;;4.77;1.13;;;4.80;99.90;;;;;;5005413;28;20197;-65
2023/03/27 09:40:22;;;;;;;3.00;0.77;;;5.00;99.90;;;;;;5015607;28;20229;-64
2023/03/27 09:42:51;;;;;;;4.37;1.30;;;5.10;99.90;;;;;;5011856;28;20571;-64
2023/03/27 09:45:20;;;;;;;7.27;1.40;;;5.20;99.90;;;;;;4999830;28;20205;-64
2023/03/27 09:47:57;;;;;;;6.03;1.17;;;5.20;99.90;;;;;;5020515;28;20499;-65
2023/03/27 09:50:29;;;;;;;1.43;0.77;;;5.30;99.90;;;;;;4985262;28;20588;-65
2023/03/27 09:53:08;;;;;;;2.90;0.83;;;5.30;99.90;;;;;;5021405;28;20202;-65
2023/03/27 09:55:48;;;;;;;5.50;1.13;;;5.50;99.90;;;;;;5016930;28;20256;-65
2023/03/27 09:58:23;;;;;;;3.50;0.70;;;5.50;99.90;;;;;;5012013;28;20201;-64
2023/03/27 10:01:06;;;;;;;3.93;0.97;;;5.60;99.90;;;;;;5007296;28;20873;-64
2023/03/27 10:03:37;;;;;;;2.10;0.90;;;5.60;99.90;;;;;;4987114;28;20646;-65
2023/03/27 10:06:07;;;;;;;3.03;1.20;;;5.60;99.90;;;;;;5011686;28;20673;-64
2023/03/27 10:08:39;;;;;;;4.43;0.90;;;5.80;99.90;;;;;;5013119;28;20202;-64
2023/03/27 10:11:14;;;;;;;1.27;0.83;;;5.80;99.90;;;;;;5023776;28;20400;-64
2023/03/27 10:13:46;;;;;;;8.80;1.20;;;5.90;99.90;;;;;;4983679;28;20209;-64
2023/03/27 10:16:16;;;;;;;1.50;0.70;;;5.70;99.90;;;;;;5022275;28;20263;-64
2023/03/27 10:18:45;;;;;;;7.20;0.80;;;5.70;99.90;;;;;;4989005;28;20493;-64
2023/03/27 10:21:19;;;;;;;2.47;0.60;;;5.70;99.90;;;;;;5016945;28;20233;-64
2023/03/27 10:23:48;;;;;;;5.10;1.17;;;5.80;99.90;;;;;;5017605;28;20344;-64
2023/03/27 10:26:20;;;;;;;0.33;0.33;;;5.90;99.90;;;;;;5016940;28;20199;-64
2023/03/27 10:28:48;;;;;;;2.23;0.90;;;5.60;99.90;;;;;;5004709;28;20353;-64
2023/03/27 10:31:28;;;;;;;0.40;0.40;;;5.10;99.90;;;;;;5001403;28;21267;-64
2023/03/27 10:33:56;;;;;;;0.57;0.57;;;4.70;99.90;;;;;;5020379;28;20888;-64
2023/03/27 10:36:24;;;;;;;0.40;0.40;;;4.30;99.90;;;;;;4985911;28;20299;-64
2023/03/27 10:38:56;;;;;;;2.77;0.50;;;4.10;99.90;;;;;;5007840;28;20206;-63
2023/03/27 10:41:26;;;;;;;3.90;0.83;;;4.00;99.90;;;;;;4987310;28;20224;-63
2023/03/27 10:43:53;;;;;;;1.90;0.63;;;4.00;99.90;;;;;;4995352;28;20525;-64
2023/03/27 10:46:22;;;;;;;0.53;0.50;;;3.80;99.90;;;;;;4961520;28;21453;-64
2023/03/27 10:48:58;;;;;;;0.50;0.47;;;3.80;99.90;;;;;;4998952;28;20207;-64
2023/03/27 10:51:35;;;;;;;1.17;0.47;;;3.80;99.90;;;;;;4989181;28;20223;-63
2023/03/27 10:54:09;;;;;;;3.23;0.90;;;3.80;99.90;;;;;;5015439;28;20403;-64
2023/03/27 10:56:45;;;;;;;1.13;0.53;;;4.00;99.90;;;;;;5000856;28;20289;-63
2023/03/27 10:59:17;;;;;;;1.43;0.70;;;4.40;99.90;;;;;;5009814;28;20236;-64
2023/03/27 11:01:48;;;;;;;2.73;0.90;;;4.50;99.90;;;;;;4972491;28;20236;-64
2023/03/27 11:04:19;;;;;;;2.23;0.90;;;4.60;99.90;;;;;;5012840;28;20449;-64
2023/03/27 11:06:49;;;;;;;2.67;0.80;;;4.40;99.90;;;;;;4981521;28;20228;-64
2023/03/27 11:09:22;;;;;;;2.53;0.63;;;4.20;99.90;;;;;;5000236;28;20315;-64
2023/03/27 11:11:55;;;;;;;5.40;1.00;;;4.00;99.90;;;;;;5007214;28;20464;-64
2023/03/27 11:14:25;;;;;;;0.50;0.50;;;4.00;99.90;;;;;;5010331;28;20658;-64
2023/03/27 11:16:56;;;;;;;4.30;0.97;;;4.00;99.90;;;;;;4967394;28;20221;-64
2023/03/27 11:19:32;;;;;;;2.97;0.80;;;4.00;99.90;;;;;;5008752;28;20227;-64
2023/03/27 11:22:04;;;;;;;2.53;0.87;;;4.20;99.90;;;;;;4986992;28;20438;-64
2023/03/27 11:24:38;;;;;;;2.30;1.10;;;4.50;99.90;;;;;;4996402;28;20225;-64
2023/03/27 11:27:13;;;;;;;2.03;0.60;;;5.00;99.90;;;;;;5012419;28;20675;-64
2023/03/27 11:29:48;;;;;;;4.57;0.70;;;5.30;99.90;;;;;;5020964;28;20668;-64
2023/03/27 11:32:22;;;;;;;1.37;0.60;;;4.30;99.90;;;;;;4972902;28;20236;-64
2023/03/27 11:34:56;;;;;;;6.03;0.73;;;3.90;99.90;;;;;;5016515;28;20216;-64
2023/03/27 11:37:29;;;;;;;5.03;1.00;;;3.80;99.90;;;;;;4989659;28;20422;-63
2023/03/27 11:40:01;;;;;;;3.97;1.00;;;3.80;99.90;;;;;;5015435;28;20225;-64
2023/03/27 11:42:32;;;;;;;8.93;0.77;;;3.80;99.90;;;;;;5020466;28;20461;-64
2023/03/27 11:45:03;;;;;;;2.43;0.90;;;3.90;99.90;;;;;;5003976;28;20198;-65
2023/03/27 11:47:43;;;;;;;1.03;0.80;;;4.10;99.90;;;;;;5000782;28;20229;-64
2023/03/27 11:50:23;;;;;;;4.60;0.80;;;4.50;99.90;;;;;;5005185;28;20205;-64
2023/03/27 11:53:07;;;;;;;0.57;0.40;;;4.80;99.90;;;;;;4978342;28;21093;-65
2023/03/27 11:55:45;;;;;;;0.87;0.50;;;5.10;99.90;;;;;;5014791;28;20220;-64
2023/03/27 11:58:27;;;;;;;2.40;0.50;;;5.10;99.90;;;;;;5020997;28;20532;-65
2023/03/27 12:01:00;;;;;;;0.97;0.50;;;5.10;99.90;;;;;;5003894;28;20328;-64
2023/03/27 12:03:54;;;;;;;0.87;0.70;;;5.30;99.90;;;;;;5001395;28;22195;-64
2023/03/27 12:06:31;;;;;;;2.70;0.80;;;5.40;99.90;;;;;;4957487;28;20709;-64
2023/03/27 12:09:15;;;;;;;3.33;0.90;;;5.40;99.90;;;;;;4947211;28;20842;-64
2023/03/27 12:11:46;;;;;;;2.97;0.90;;;5.50;99.90;;;;;;4986879;28;20222;-64
2023/03/27 12:14:37;;;;;;;2.90;0.80;;;5.60;99.90;;;;;;5002632;28;20228;-65
2023/03/27 12:17:26;;;;;;;2.07;0.90;;;5.70;99.90;;;;;;4970907;28;20221;-65
2023/03/27 12:20:30;;;;;;;0.53;0.50;;;5.70;99.90;;;;;;4997763;28;20735;-65
2023/03/27 12:23:03;;;;;;;1.77;0.90;;;5.90;99.90;;;;;;4991844;28;20240;-65
2023/03/27 12:25:44;;;;;;;3.13;0.97;;;6.10;99.90;;;;;;5019189;28;20194;-64
2023/03/27 12:28:29;;;;;;;5.13;1.00;;;6.10;99.90;;;;;;5004186;28;20500;-64
2023/03/27 12:31:06;;;;;;;4.57;1.03;;;6.00;99.90;;;;;;5005861;28;20873;-64
2023/03/27 12:33:49;;;;;;;5.80;0.90;;;6.00;99.90;;;;;;4973922;28;20194;-64
2023/03/27 12:36:19;;;;;;;6.80;0.90;;;6.20;99.90;;;;;;4989633;28;20561;-64
2023/03/27 12:38:46;;;;;;;5.50;1.00;;;6.30;99.90;;;;;;4998105;28;20197;-64
2023/03/27 12:41:22;;;;;;;1.40;0.83;;;5.80;99.90;;;;;;4992848;28;20412;-65
2023/03/27 12:43:53;;;;;;;4.53;1.23;;;5.70;99.90;;;;;;4994500;28;20806;-64
2023/03/27 12:46:33;;;;;;;2.90;0.90;;;5.50;99.90;;;;;;4984665;28;20234;-65
2023/03/27 12:49:04;;;;;;;3.40;0.90;;;5.60;99.90;;;;;;4971872;28;21349;-65
2023/03/27 12:51:42;;;;;;;2.07;0.73;;;5.60;99.90;;;;;;4983474;28;21186;-65
2023/03/27 12:54:15;;;;;;;4.70;0.90;;;5.60;99.90;;;;;;4995982;28;22235;-64
2023/03/27 12:56:42;;;;;;;2.07;1.00;;;5.70;99.90;;;;;;4957605;28;22643;-64
2023/03/27 12:59:22;;;;;;;5.87;0.93;;;5.80;99.90;;;;;;4989273;28;20228;-65
2023/03/27 13:02:23;;;;;;;6.33;0.97;;;6.10;99.90;;;;;;4970169;28;20233;-64
2023/03/27 13:05:17;;;;;;;2.03;1.13;;;6.40;99.90;;;;;;4958454;28;20221;-64
2023/03/27 13:07:50;;;;;;;3.07;0.90;;;6.50;99.90;;;;;;4981093;28;20742;-64
2023/03/27 13:10:40;;;;;;;2.93;1.03;;;5.90;99.90;;;;;;4967745;28;20784;-64
2023/03/27 13:13:30;;;;;;;1.70;0.57;;;5.50;99.90;;;;;;4996589;28;20842;-64
2023/03/27 13:16:10;;;;;;;4.70;0.80;;;5.20;99.90;;;;;;5006010;28;20229;-64
2023/03/27 13:19:00;;;;;;;6.97;0.93;;;4.90;99.90;;;;;;4991567;28;21364;-65